sensor_id;sensor_type;location;lat;lon;timestamp;P1;durP1;ratioP1;P2;durP2;ratioP2
61473;SDS011;53694;49.784;30.150;2022-12-07T02:03:57;12.68;;;6.69;;
61473;SDS011;53694;49.784;30.150;2022-12-07T02:05:00;8.49;;;5.23;;
61473;SDS011;53694;49.784;30.150;2022-12-07T02:06:04;7.78;;;4.42;;
61473;SDS011;53694;49.784;30.150;2022-12-07T02:07:07;4.72;;;2.72;;
61473;SDS011;53694;49.784;30.150;2022-12-07T02:08:09;5.13;;;2.40;;
61473;SDS011;53694;49.784;30.150;2022-12-07T02:09:13;4.21;;;2.34;;
61473;SDS011;53694;49.784;30.150;2022-12-07T02:10:16;3.65;;;1.91;;
61473;SDS011;53694;49.784;30.150;2022-12-07T02:11:20;4.43;;;2.16;;
61473;SDS011;53694;49.784;30.150;2022-12-07T02:12:22;4.63;;;2.35;;
61473;SDS011;53694;49.784;30.150;2022-12-07T02:13:26;4.43;;;2.09;;
61473;SDS011;53694;49.784;30.150;2022-12-07T02:14:30;5.82;;;2.46;;
61473;SDS011;53694;49.784;30.150;2022-12-07T02:16:57;4.04;;;2.04;;
61473;SDS011;53694;49.784;30.150;2022-12-07T02:20:37;4.05;;;1.84;;
61473;SDS011;53694;49.784;30.150;2022-12-07T02:28:27;5.51;;;2.75;;
61473;SDS011;53694;49.784;30.150;2022-12-07T02:29:40;13.68;;;6.00;;
61473;SDS011;53694;49.784;30.150;2022-12-07T02:31:08;3.97;;;2.06;;
61473;SDS011;53694;49.784;30.150;2022-12-07T02:32:14;3.69;;;2.01;;
61473;SDS011;53694;49.784;30.150;2022-12-07T02:33:36;4.16;;;2.11;;
61473;SDS011;53694;49.784;30.150;2022-12-07T02:34:51;3.86;;;1.98;;
61473;SDS011;53694;49.784;30.150;2022-12-07T02:36:02;3.67;;;1.71;;
61473;SDS011;53694;49.784;30.150;2022-12-07T02:37:21;4.26;;;2.21;;
61473;SDS011;53694;49.784;30.150;2022-12-07T02:38:28;4.23;;;2.14;;
61473;SDS011;53694;49.784;30.150;2022-12-07T02:39:37;4.57;;;1.93;;
61473;SDS011;53694;49.784;30.150;2022-12-07T02:40:57;3.71;;;1.78;;
61473;SDS011;53694;49.784;30.150;2022-12-07T02:41:57;3.69;;;2.03;;
61473;SDS011;53694;49.784;30.150;2022-12-07T02:43:09;3.84;;;2.19;;
61473;SDS011;53694;49.784;30.150;2022-12-07T02:44:14;4.33;;;2.07;;
61473;SDS011;53694;49.784;30.150;2022-12-07T02:45:20;5.46;;;2.38;;
61473;SDS011;53694;49.784;30.150;2022-12-07T02:46:25;4.31;;;2.21;;
61473;SDS011;53694;49.784;30.150;2022-12-07T02:47:35;4.70;;;2.49;;
61473;SDS011;53694;49.784;30.150;2022-12-07T02:48:38;4.78;;;2.03;;
61473;SDS011;53694;49.784;30.150;2022-12-07T02:49:42;3.79;;;2.00;;
61473;SDS011;53694;49.784;30.150;2022-12-07T02:50:45;3.47;;;1.77;;
61473;SDS011;53694;49.784;30.150;2022-12-07T02:51:48;4.74;;;2.66;;
61473;SDS011;53694;49.784;30.150;2022-12-07T02:52:50;3.41;;;1.74;;
61473;SDS011;53694;49.784;30.150;2022-12-07T02:53:52;4.05;;;1.85;;
61473;SDS011;53694;49.784;30.150;2022-12-07T02:54:53;5.24;;;2.36;;
61473;SDS011;53694;49.784;30.150;2022-12-07T02:55:55;3.13;;;1.79;;
61473;SDS011;53694;49.784;30.150;2022-12-07T02:58:18;4.64;;;1.82;;
61473;SDS011;53694;49.784;30.150;2022-12-07T02:59:24;4.19;;;1.83;;
61473;SDS011;53694;49.784;30.150;2022-12-07T03:00:27;3.46;;;1.93;;
61473;SDS011;53694;49.784;30.150;2022-12-07T03:02:54;3.44;;;1.66;;
61473;SDS011;53694;49.784;30.150;2022-12-07T03:07:08;6.26;;;2.22;;
61473;SDS011;53694;49.784;30.150;2022-12-07T03:08:33;4.59;;;2.22;;
61473;SDS011;53694;49.784;30.150;2022-12-07T03:09:53;5.13;;;2.46;;
61473;SDS011;53694;49.784;30.150;2022-12-07T03:11:06;5.31;;;2.42;;
61473;SDS011;53694;49.784;30.150;2022-12-07T03:12:12;4.89;;;2.59;;
61473;SDS011;53694;49.784;30.150;2022-12-07T03:14:40;5.51;;;2.69;;
61473;SDS011;53694;49.784;30.150;2022-12-07T03:15:49;5.39;;;2.69;;
61473;SDS011;53694;49.784;30.150;2022-12-07T03:17:12;4.27;;;2.01;;
61473;SDS011;53694;49.784;30.150;2022-12-07T03:18:16;5.82;;;2.13;;
61473;SDS011;53694;49.784;30.150;2022-12-07T03:19:20;5.09;;;2.19;;
61473;SDS011;53694;49.784;30.150;2022-12-07T03:20:26;4.46;;;2.20;;
61473;SDS011;53694;49.784;30.150;2022-12-07T03:21:36;5.34;;;2.36;;
61473;SDS011;53694;49.784;30.150;2022-12-07T03:22:38;5.01;;;2.40;;
61473;SDS011;53694;49.784;30.150;2022-12-07T03:23:44;4.43;;;2.06;;
61473;SDS011;53694;49.784;30.150;2022-12-07T03:24:54;3.54;;;1.88;;
61473;SDS011;53694;49.784;30.150;2022-12-07T03:25:57;4.13;;;2.16;;
61473;SDS011;53694;49.784;30.150;2022-12-07T03:27:08;4.59;;;2.24;;
61473;SDS011;53694;49.784;30.150;2022-12-07T03:28:12;4.00;;;1.93;;
61473;SDS011;53694;49.784;30.150;2022-12-07T03:29:19;4.12;;;1.84;;
61473;SDS011;53694;49.784;30.150;2022-12-07T03:30:24;5.02;;;2.27;;
61473;SDS011;53694;49.784;30.150;2022-12-07T03:31:29;5.08;;;2.37;;
61473;SDS011;53694;49.784;30.150;2022-12-07T03:32:40;4.79;;;2.42;;
61473;SDS011;53694;49.784;30.150;2022-12-07T03:36:29;5.77;;;2.79;;
61473;SDS011;53694;49.784;30.150;2022-12-07T03:37:39;6.84;;;2.96;;
61473;SDS011;53694;49.784;30.150;2022-12-07T03:38:54;5.74;;;2.88;;
61473;SDS011;53694;49.784;30.150;2022-12-07T03:40:05;4.96;;;2.94;;
61473;SDS011;53694;49.784;30.150;2022-12-07T03:41:16;4.72;;;2.43;;
61473;SDS011;53694;49.784;30.150;2022-12-07T03:42:15;5.93;;;2.57;;
61473;SDS011;53694;49.784;30.150;2022-12-07T03:43:17;5.81;;;2.87;;
61473;SDS011;53694;49.784;30.150;2022-12-07T03:44:20;4.96;;;2.09;;
61473;SDS011;53694;49.784;30.150;2022-12-07T03:45:24;3.92;;;2.17;;
61473;SDS011;53694;49.784;30.150;2022-12-07T03:46:37;5.22;;;2.11;;
61473;SDS011;53694;49.784;30.150;2022-12-07T03:48:06;4.35;;;2.17;;
61473;SDS011;53694;49.784;30.150;2022-12-07T03:53:48;4.85;;;2.45;;
61473;SDS011;53694;49.784;30.150;2022-12-07T03:54:56;5.76;;;2.33;;
61473;SDS011;53694;49.784;30.150;2022-12-07T03:56:00;4.74;;;2.06;;
61473;SDS011;53694;49.784;30.150;2022-12-07T03:57:03;5.39;;;2.23;;
61473;SDS011;53694;49.784;30.150;2022-12-07T03:58:07;6.78;;;2.49;;
61473;SDS011;53694;49.784;30.150;2022-12-07T03:59:12;6.94;;;2.72;;
61473;SDS011;53694;49.784;30.150;2022-12-07T04:00:15;6.89;;;3.30;;
61473;SDS011;53694;49.784;30.150;2022-12-07T04:01:17;6.21;;;2.94;;
61473;SDS011;53694;49.784;30.150;2022-12-07T04:02:19;5.02;;;2.49;;
61473;SDS011;53694;49.784;30.150;2022-12-07T04:03:21;5.44;;;2.69;;
61473;SDS011;53694;49.784;30.150;2022-12-07T04:04:23;5.76;;;2.28;;
61473;SDS011;53694;49.784;30.150;2022-12-07T04:05:26;5.37;;;2.24;;
61473;SDS011;53694;49.784;30.150;2022-12-07T04:06:28;5.33;;;2.22;;
61473;SDS011;53694;49.784;30.150;2022-12-07T04:07:29;5.07;;;2.19;;
61473;SDS011;53694;49.784;30.150;2022-12-07T04:08:31;6.54;;;2.26;;
61473;SDS011;53694;49.784;30.150;2022-12-07T04:09:33;5.10;;;2.47;;
61473;SDS011;53694;49.784;30.150;2022-12-07T04:10:35;6.69;;;2.12;;
61473;SDS011;53694;49.784;30.150;2022-12-07T04:11:37;6.04;;;2.41;;
61473;SDS011;53694;49.784;30.150;2022-12-07T04:12:38;6.11;;;2.31;;
61473;SDS011;53694;49.784;30.150;2022-12-07T04:13:40;4.83;;;2.20;;
61473;SDS011;53694;49.784;30.150;2022-12-07T04:14:42;4.70;;;2.09;;
61473;SDS011;53694;49.784;30.150;2022-12-07T04:15:43;5.05;;;1.98;;
61473;SDS011;53694;49.784;30.150;2022-12-07T04:17:54;5.84;;;2.37;;
61473;SDS011;53694;49.784;30.150;2022-12-07T04:18:55;5.19;;;2.34;;
61473;SDS011;53694;49.784;30.150;2022-12-07T04:19:57;5.90;;;2.44;;
61473;SDS011;53694;49.784;30.150;2022-12-07T04:20:59;6.72;;;3.03;;
61473;SDS011;53694;49.784;30.150;2022-12-07T04:22:01;6.46;;;2.85;;
61473;SDS011;53694;49.784;30.150;2022-12-07T04:23:05;6.60;;;2.78;;
61473;SDS011;53694;49.784;30.150;2022-12-07T04:24:06;7.03;;;2.59;;
61473;SDS011;53694;49.784;30.150;2022-12-07T04:25:08;5.71;;;2.13;;
61473;SDS011;53694;49.784;30.150;2022-12-07T04:26:10;6.59;;;2.55;;
61473;SDS011;53694;49.784;30.150;2022-12-07T04:27:12;4.89;;;2.17;;
61473;SDS011;53694;49.784;30.150;2022-12-07T04:28:14;4.76;;;2.09;;
61473;SDS011;53694;49.784;30.150;2022-12-07T04:29:15;4.50;;;2.16;;
61473;SDS011;53694;49.784;30.150;2022-12-07T04:30:18;3.99;;;1.89;;
61473;SDS011;53694;49.784;30.150;2022-12-07T04:31:19;4.69;;;2.11;;
61473;SDS011;53694;49.784;30.150;2022-12-07T04:32:21;6.15;;;2.24;;
61473;SDS011;53694;49.784;30.150;2022-12-07T04:33:24;5.50;;;2.01;;
61473;SDS011;53694;49.784;30.150;2022-12-07T04:34:25;6.47;;;2.45;;
61473;SDS011;53694;49.784;30.150;2022-12-07T04:35:27;4.03;;;1.91;;
61473;SDS011;53694;49.784;30.150;2022-12-07T04:36:29;4.85;;;1.81;;
61473;SDS011;53694;49.784;30.150;2022-12-07T04:37:31;3.76;;;1.95;;
61473;SDS011;53694;49.784;30.150;2022-12-07T04:38:33;4.29;;;1.73;;
61473;SDS011;53694;49.784;30.150;2022-12-07T04:39:35;5.29;;;1.90;;
61473;SDS011;53694;49.784;30.150;2022-12-07T04:40:37;4.21;;;1.69;;
61473;SDS011;53694;49.784;30.150;2022-12-07T04:41:38;5.42;;;1.90;;
61473;SDS011;53694;49.784;30.150;2022-12-07T04:42:40;4.03;;;1.84;;
61473;SDS011;53694;49.784;30.150;2022-12-07T04:43:41;5.83;;;2.09;;
61473;SDS011;53694;49.784;30.150;2022-12-07T04:44:43;6.92;;;2.78;;
61473;SDS011;53694;49.784;30.150;2022-12-07T04:45:47;3.91;;;2.16;;
61473;SDS011;53694;49.784;30.150;2022-12-07T04:46:49;7.20;;;2.64;;
61473;SDS011;53694;49.784;30.150;2022-12-07T04:47:52;5.73;;;2.24;;
61473;SDS011;53694;49.784;30.150;2022-12-07T04:48:53;4.48;;;2.20;;
61473;SDS011;53694;49.784;30.150;2022-12-07T04:49:55;4.05;;;1.87;;
61473;SDS011;53694;49.784;30.150;2022-12-07T04:50:56;5.54;;;2.19;;
61473;SDS011;53694;49.784;30.150;2022-12-07T04:51:58;4.51;;;2.13;;
61473;SDS011;53694;49.784;30.150;2022-12-07T04:53:00;3.59;;;1.87;;
61473;SDS011;53694;49.784;30.150;2022-12-07T04:54:01;4.07;;;1.80;;
61473;SDS011;53694;49.784;30.150;2022-12-07T04:55:03;5.94;;;2.21;;
61473;SDS011;53694;49.784;30.150;2022-12-07T04:56:06;5.31;;;1.65;;
61473;SDS011;53694;49.784;30.150;2022-12-07T04:57:07;4.47;;;1.83;;
61473;SDS011;53694;49.784;30.150;2022-12-07T04:58:09;5.15;;;1.51;;
61473;SDS011;53694;49.784;30.150;2022-12-07T04:59:12;4.13;;;1.95;;
61473;SDS011;53694;49.784;30.150;2022-12-07T05:00:16;5.52;;;2.15;;
61473;SDS011;53694;49.784;30.150;2022-12-07T05:01:18;4.92;;;2.04;;
61473;SDS011;53694;49.784;30.150;2022-12-07T05:02:20;7.03;;;1.91;;
61473;SDS011;53694;49.784;30.150;2022-12-07T05:03:21;6.09;;;2.21;;
61473;SDS011;53694;49.784;30.150;2022-12-07T05:04:23;5.76;;;2.19;;
61473;SDS011;53694;49.784;30.150;2022-12-07T05:05:24;4.65;;;2.09;;
61473;SDS011;53694;49.784;30.150;2022-12-07T05:06:26;4.74;;;2.39;;
61473;SDS011;53694;49.784;30.150;2022-12-07T05:07:28;6.83;;;3.42;;
61473;SDS011;53694;49.784;30.150;2022-12-07T05:08:29;5.56;;;2.78;;
61473;SDS011;53694;49.784;30.150;2022-12-07T05:09:31;3.68;;;2.06;;
61473;SDS011;53694;49.784;30.150;2022-12-07T05:10:32;5.59;;;2.55;;
61473;SDS011;53694;49.784;30.150;2022-12-07T05:11:34;6.40;;;3.14;;
61473;SDS011;53694;49.784;30.150;2022-12-07T05:12:36;5.61;;;2.33;;
61473;SDS011;53694;49.784;30.150;2022-12-07T05:13:37;5.84;;;2.15;;
61473;SDS011;53694;49.784;30.150;2022-12-07T05:14:39;5.94;;;2.59;;
61473;SDS011;53694;49.784;30.150;2022-12-07T05:15:40;6.67;;;2.63;;
61473;SDS011;53694;49.784;30.150;2022-12-07T05:16:43;8.88;;;3.77;;
61473;SDS011;53694;49.784;30.150;2022-12-07T05:17:45;5.25;;;2.22;;
61473;SDS011;53694;49.784;30.150;2022-12-07T05:18:47;6.12;;;2.16;;
61473;SDS011;53694;49.784;30.150;2022-12-07T05:19:48;4.86;;;2.05;;
61473;SDS011;53694;49.784;30.150;2022-12-07T05:20:50;4.46;;;1.92;;
61473;SDS011;53694;49.784;30.150;2022-12-07T05:21:52;4.19;;;2.13;;
61473;SDS011;53694;49.784;30.150;2022-12-07T05:22:53;3.87;;;2.16;;
61473;SDS011;53694;49.784;30.150;2022-12-07T05:23:55;4.29;;;2.30;;
61473;SDS011;53694;49.784;30.150;2022-12-07T05:24:57;4.31;;;2.18;;
61473;SDS011;53694;49.784;30.150;2022-12-07T05:25:58;5.04;;;2.44;;
61473;SDS011;53694;49.784;30.150;2022-12-07T05:27:00;5.13;;;2.35;;
61473;SDS011;53694;49.784;30.150;2022-12-07T05:28:01;5.46;;;2.74;;
61473;SDS011;53694;49.784;30.150;2022-12-07T05:29:03;8.05;;;3.61;;
61473;SDS011;53694;49.784;30.150;2022-12-07T05:30:06;7.24;;;3.22;;
61473;SDS011;53694;49.784;30.150;2022-12-07T05:31:09;5.75;;;2.88;;
61473;SDS011;53694;49.784;30.150;2022-12-07T05:32:10;7.51;;;3.91;;
61473;SDS011;53694;49.784;30.150;2022-12-07T05:33:12;10.12;;;3.99;;
61473;SDS011;53694;49.784;30.150;2022-12-07T05:34:14;6.21;;;3.10;;
61473;SDS011;53694;49.784;30.150;2022-12-07T05:35:15;6.15;;;2.92;;
61473;SDS011;53694;49.784;30.150;2022-12-07T05:36:17;6.95;;;3.03;;
61473;SDS011;53694;49.784;30.150;2022-12-07T05:37:20;6.45;;;2.41;;
61473;SDS011;53694;49.784;30.150;2022-12-07T05:38:21;7.38;;;3.06;;
61473;SDS011;53694;49.784;30.150;2022-12-07T05:39:23;6.02;;;2.37;;
61473;SDS011;53694;49.784;30.150;2022-12-07T05:40:25;8.06;;;2.65;;
61473;SDS011;53694;49.784;30.150;2022-12-07T05:41:26;5.13;;;2.49;;
61473;SDS011;53694;49.784;30.150;2022-12-07T05:42:28;5.36;;;2.63;;
61473;SDS011;53694;49.784;30.150;2022-12-07T05:43:30;6.15;;;3.00;;
61473;SDS011;53694;49.784;30.150;2022-12-07T05:44:32;6.73;;;2.54;;
61473;SDS011;53694;49.784;30.150;2022-12-07T05:45:33;6.21;;;2.62;;
61473;SDS011;53694;49.784;30.150;2022-12-07T05:46:35;5.88;;;2.88;;
61473;SDS011;53694;49.784;30.150;2022-12-07T05:47:37;8.88;;;3.85;;
61473;SDS011;53694;49.784;30.150;2022-12-07T05:48:38;5.49;;;2.48;;
61473;SDS011;53694;49.784;30.150;2022-12-07T05:49:40;8.16;;;3.61;;
61473;SDS011;53694;49.784;30.150;2022-12-07T05:50:41;6.12;;;3.61;;
61473;SDS011;53694;49.784;30.150;2022-12-07T05:51:43;7.48;;;3.74;;
61473;SDS011;53694;49.784;30.150;2022-12-07T05:52:45;13.06;;;7.77;;
61473;SDS011;53694;49.784;30.150;2022-12-07T05:53:46;16.50;;;9.65;;
61473;SDS011;53694;49.784;30.150;2022-12-07T05:54:48;12.61;;;6.84;;
61473;SDS011;53694;49.784;30.150;2022-12-07T10:19:35;12.88;;;5.87;;
61473;SDS011;53694;49.784;30.150;2022-12-07T10:20:36;8.78;;;5.09;;
61473;SDS011;53694;49.784;30.150;2022-12-07T10:25:18;4.81;;;2.32;;
61473;SDS011;53694;49.784;30.150;2022-12-07T10:26:32;4.34;;;1.86;;
61473;SDS011;53694;49.784;30.150;2022-12-07T10:27:36;6.58;;;1.96;;
61473;SDS011;53694;49.784;30.150;2022-12-07T10:28:37;3.96;;;2.00;;
61473;SDS011;53694;49.784;30.150;2022-12-07T10:29:39;7.06;;;2.48;;
61473;SDS011;53694;49.784;30.150;2022-12-07T10:32:02;4.93;;;2.57;;
61473;SDS011;53694;49.784;30.150;2022-12-07T10:33:20;5.27;;;2.12;;
61473;SDS011;53694;49.784;30.150;2022-12-07T10:34:36;5.13;;;2.47;;
61473;SDS011;53694;49.784;30.150;2022-12-07T10:35:37;5.61;;;2.70;;
61473;SDS011;53694;49.784;30.150;2022-12-07T10:36:42;6.77;;;2.99;;
61473;SDS011;53694;49.784;30.150;2022-12-07T10:37:44;10.40;;;4.59;;
61473;SDS011;53694;49.784;30.150;2022-12-07T10:38:51;15.18;;;7.79;;
61473;SDS011;53694;49.784;30.150;2022-12-07T10:39:55;10.47;;;5.38;;
61473;SDS011;53694;49.784;30.150;2022-12-07T10:41:04;6.16;;;3.49;;
61473;SDS011;53694;49.784;30.150;2022-12-07T10:42:09;5.50;;;2.77;;
61473;SDS011;53694;49.784;30.150;2022-12-07T10:43:17;7.47;;;4.02;;
61473;SDS011;53694;49.784;30.150;2022-12-07T10:44:27;8.45;;;4.47;;
61473;SDS011;53694;49.784;30.150;2022-12-07T10:45:34;7.41;;;4.43;;
61473;SDS011;53694;49.784;30.150;2022-12-07T10:52:49;30.44;;;9.92;;
61473;SDS011;53694;49.784;30.150;2022-12-07T10:57:05;9.58;;;5.72;;
61473;SDS011;53694;49.784;30.150;2022-12-07T10:59:41;8.79;;;4.24;;
61473;SDS011;53694;49.784;30.150;2022-12-07T11:00:47;8.26;;;5.39;;
61473;SDS011;53694;49.784;30.150;2022-12-07T11:06:30;11.77;;;4.44;;
61473;SDS011;53694;49.784;30.150;2022-12-07T11:07:51;18.35;;;9.01;;
61473;SDS011;53694;49.784;30.150;2022-12-07T11:09:01;10.84;;;7.02;;
61473;SDS011;53694;49.784;30.150;2022-12-07T11:11:49;6.12;;;3.12;;
61473;SDS011;53694;49.784;30.150;2022-12-07T11:13:04;8.92;;;5.11;;
61473;SDS011;53694;49.784;30.150;2022-12-07T11:14:40;8.47;;;4.04;;
61473;SDS011;53694;49.784;30.150;2022-12-07T11:16:01;6.43;;;3.44;;
61473;SDS011;53694;49.784;30.150;2022-12-07T11:22:30;6.26;;;3.41;;
61473;SDS011;53694;49.784;30.150;2022-12-07T11:28:36;4.43;;;2.29;;
61473;SDS011;53694;49.784;30.150;2022-12-07T11:30:13;4.21;;;2.10;;
61473;SDS011;53694;49.784;30.150;2022-12-07T11:37:20;8.53;;;3.99;;
61473;SDS011;53694;49.784;30.150;2022-12-07T11:39:52;6.21;;;3.03;;
61473;SDS011;53694;49.784;30.150;2022-12-07T11:40:58;7.89;;;4.94;;
61473;SDS011;53694;49.784;30.150;2022-12-07T11:42:04;4.74;;;2.62;;
61473;SDS011;53694;49.784;30.150;2022-12-07T11:43:29;4.45;;;2.39;;
61473;SDS011;53694;49.784;30.150;2022-12-07T11:44:35;5.19;;;2.37;;
61473;SDS011;53694;49.784;30.150;2022-12-07T11:46:00;5.75;;;2.60;;
61473;SDS011;53694;49.784;30.150;2022-12-07T11:47:13;5.44;;;2.99;;
61473;SDS011;53694;49.784;30.150;2022-12-07T11:48:38;4.99;;;2.31;;
61473;SDS011;53694;49.784;30.150;2022-12-07T11:49:54;7.62;;;4.40;;
61473;SDS011;53694;49.784;30.150;2022-12-07T11:51:12;5.77;;;2.86;;
61473;SDS011;53694;49.784;30.150;2022-12-07T11:52:21;7.06;;;4.28;;
61473;SDS011;53694;49.784;30.150;2022-12-07T11:53:35;7.57;;;3.98;;
61473;SDS011;53694;49.784;30.150;2022-12-07T11:54:40;3.92;;;2.14;;
61473;SDS011;53694;49.784;30.150;2022-12-07T11:57:20;6.67;;;3.78;;
61473;SDS011;53694;49.784;30.150;2022-12-07T11:58:38;5.71;;;2.83;;
61473;SDS011;53694;49.784;30.150;2022-12-07T11:59:42;5.22;;;3.09;;
61473;SDS011;53694;49.784;30.150;2022-12-07T12:00:46;5.62;;;2.98;;
61473;SDS011;53694;49.784;30.150;2022-12-07T12:03:07;7.17;;;4.02;;
61473;SDS011;53694;49.784;30.150;2022-12-07T12:05:18;4.66;;;2.55;;
61473;SDS011;53694;49.784;30.150;2022-12-07T12:06:22;6.34;;;3.44;;
61473;SDS011;53694;49.784;30.150;2022-12-07T12:07:24;5.13;;;3.01;;
61473;SDS011;53694;49.784;30.150;2022-12-07T12:08:29;4.56;;;2.74;;
61473;SDS011;53694;49.784;30.150;2022-12-07T12:09:34;6.51;;;3.53;;
61473;SDS011;53694;49.784;30.150;2022-12-07T12:13:20;4.29;;;2.06;;
61473;SDS011;53694;49.784;30.150;2022-12-07T12:18:26;4.42;;;2.24;;
61473;SDS011;53694;49.784;30.150;2022-12-07T12:20:36;4.47;;;2.33;;
61473;SDS011;53694;49.784;30.150;2022-12-07T12:21:43;7.63;;;4.38;;
61473;SDS011;53694;49.784;30.150;2022-12-07T12:24:10;5.42;;;3.01;;
61473;SDS011;53694;49.784;30.150;2022-12-07T12:26:32;3.77;;;2.24;;
61473;SDS011;53694;49.784;30.150;2022-12-07T12:27:37;6.31;;;3.12;;
61473;SDS011;53694;49.784;30.150;2022-12-07T12:29:54;6.74;;;4.18;;
61473;SDS011;53694;49.784;30.150;2022-12-07T12:32:23;7.79;;;3.64;;
61473;SDS011;53694;49.784;30.150;2022-12-07T12:33:28;5.93;;;2.45;;
61473;SDS011;53694;49.784;30.150;2022-12-07T12:34:37;5.53;;;2.97;;
61473;SDS011;53694;49.784;30.150;2022-12-07T12:35:37;6.86;;;3.33;;
61473;SDS011;53694;49.784;30.150;2022-12-07T12:37:47;6.32;;;3.48;;
61473;SDS011;53694;49.784;30.150;2022-12-07T12:42:47;10.75;;;5.80;;
61473;SDS011;53694;49.784;30.150;2022-12-07T12:43:49;8.78;;;5.02;;
61473;SDS011;53694;49.784;30.150;2022-12-07T12:45:02;5.95;;;3.55;;
61473;SDS011;53694;49.784;30.150;2022-12-07T12:47:39;7.87;;;4.16;;
61473;SDS011;53694;49.784;30.150;2022-12-07T12:48:46;6.77;;;3.46;;
61473;SDS011;53694;49.784;30.150;2022-12-07T12:50:11;5.15;;;3.01;;
61473;SDS011;53694;49.784;30.150;2022-12-07T12:53:43;11.45;;;5.61;;
61473;SDS011;53694;49.784;30.150;2022-12-07T12:56:19;5.87;;;3.83;;
61473;SDS011;53694;49.784;30.150;2022-12-07T12:57:33;6.29;;;3.43;;
61473;SDS011;53694;49.784;30.150;2022-12-07T12:58:36;6.96;;;3.69;;
61473;SDS011;53694;49.784;30.150;2022-12-07T13:02:37;8.11;;;5.55;;
61473;SDS011;53694;49.784;30.150;2022-12-07T13:03:50;6.51;;;3.89;;
61473;SDS011;53694;49.784;30.150;2022-12-07T13:05:02;10.74;;;6.77;;
61473;SDS011;53694;49.784;30.150;2022-12-07T13:08:49;7.41;;;4.43;;
61473;SDS011;53694;49.784;30.150;2022-12-07T13:09:53;5.74;;;3.50;;
61473;SDS011;53694;49.784;30.150;2022-12-07T13:10:55;7.22;;;4.36;;
61473;SDS011;53694;49.784;30.150;2022-12-07T13:12:11;7.47;;;3.79;;
61473;SDS011;53694;49.784;30.150;2022-12-07T13:21:54;7.12;;;4.51;;
61473;SDS011;53694;49.784;30.150;2022-12-07T13:22:56;7.24;;;4.24;;
61473;SDS011;53694;49.784;30.150;2022-12-07T13:24:00;7.49;;;3.65;;
61473;SDS011;53694;49.784;30.150;2022-12-07T13:27:41;9.37;;;4.43;;
61473;SDS011;53694;49.784;30.150;2022-12-07T13:28:50;7.86;;;4.21;;
61473;SDS011;53694;49.784;30.150;2022-12-07T13:29:55;6.29;;;3.57;;
61473;SDS011;53694;49.784;30.150;2022-12-07T13:31:19;7.71;;;4.99;;
61473;SDS011;53694;49.784;30.150;2022-12-07T13:32:23;9.18;;;4.83;;
61473;SDS011;53694;49.784;30.150;2022-12-07T13:33:27;9.84;;;5.64;;
61473;SDS011;53694;49.784;30.150;2022-12-07T13:34:32;9.33;;;4.48;;
61473;SDS011;53694;49.784;30.150;2022-12-07T13:35:37;6.58;;;3.78;;
61473;SDS011;53694;49.784;30.150;2022-12-07T13:36:43;6.90;;;4.66;;
61473;SDS011;53694;49.784;30.150;2022-12-07T13:37:45;8.92;;;5.33;;
61473;SDS011;53694;49.784;30.150;2022-12-07T13:39:32;8.72;;;3.36;;
61473;SDS011;53694;49.784;30.150;2022-12-07T13:40:01;8.36;;;4.11;;
61473;SDS011;53694;49.784;30.150;2022-12-07T13:41:22;5.63;;;3.38;;
61473;SDS011;53694;49.784;30.150;2022-12-07T13:43:30;6.97;;;4.48;;
61473;SDS011;53694;49.784;30.150;2022-12-07T13:44:33;5.90;;;3.46;;
61473;SDS011;53694;49.784;30.150;2022-12-07T13:45:36;12.57;;;8.19;;
61473;SDS011;53694;49.784;30.150;2022-12-07T13:48:04;6.87;;;5.26;;
61473;SDS011;53694;49.784;30.150;2022-12-07T13:49:15;8.27;;;5.02;;
61473;SDS011;53694;49.784;30.150;2022-12-07T13:50:31;8.92;;;4.39;;
61473;SDS011;53694;49.784;30.150;2022-12-07T13:51:34;5.59;;;3.47;;
61473;SDS011;53694;49.784;30.150;2022-12-07T13:52:42;7.63;;;4.93;;
61473;SDS011;53694;49.784;30.150;2022-12-07T13:53:59;10.79;;;6.58;;
61473;SDS011;53694;49.784;30.150;2022-12-07T13:56:12;8.99;;;5.32;;
61473;SDS011;53694;49.784;30.150;2022-12-07T13:57:10;11.23;;;7.82;;
61473;SDS011;53694;49.784;30.150;2022-12-07T13:58:11;9.70;;;5.74;;
61473;SDS011;53694;49.784;30.150;2022-12-07T13:59:15;5.49;;;2.87;;
61473;SDS011;53694;49.784;30.150;2022-12-07T14:00:20;10.37;;;5.47;;
61473;SDS011;53694;49.784;30.150;2022-12-07T18:02:47;26.08;;;12.64;;
61473;SDS011;53694;49.784;30.150;2022-12-07T18:03:49;15.58;;;9.56;;
61473;SDS011;53694;49.784;30.150;2022-12-07T18:04:50;10.51;;;6.95;;
61473;SDS011;53694;49.784;30.150;2022-12-07T18:05:52;9.30;;;5.54;;
61473;SDS011;53694;49.784;30.150;2022-12-07T18:06:54;8.15;;;4.80;;
61473;SDS011;53694;49.784;30.150;2022-12-07T18:07:55;10.94;;;4.55;;
61473;SDS011;53694;49.784;30.150;2022-12-07T18:08:58;6.25;;;3.71;;
61473;SDS011;53694;49.784;30.150;2022-12-07T18:10:00;6.29;;;2.92;;
61473;SDS011;53694;49.784;30.150;2022-12-07T18:11:02;4.76;;;2.35;;
61473;SDS011;53694;49.784;30.150;2022-12-07T18:12:03;5.08;;;2.51;;
61473;SDS011;53694;49.784;30.150;2022-12-07T18:13:05;5.88;;;3.27;;
61473;SDS011;53694;49.784;30.150;2022-12-07T18:14:07;8.01;;;4.44;;
61473;SDS011;53694;49.784;30.150;2022-12-07T18:15:09;7.56;;;3.74;;
61473;SDS011;53694;49.784;30.150;2022-12-07T18:16:15;5.78;;;3.09;;
61473;SDS011;53694;49.784;30.150;2022-12-07T18:17:19;5.91;;;3.10;;
61473;SDS011;53694;49.784;30.150;2022-12-07T18:18:20;6.59;;;3.50;;
61473;SDS011;53694;49.784;30.150;2022-12-07T18:19:22;6.69;;;3.56;;
61473;SDS011;53694;49.784;30.150;2022-12-07T18:20:24;6.18;;;3.54;;
61473;SDS011;53694;49.784;30.150;2022-12-07T18:21:26;11.69;;;5.00;;
61473;SDS011;53694;49.784;30.150;2022-12-07T18:22:28;28.61;;;10.02;;
61473;SDS011;53694;49.784;30.150;2022-12-07T18:23:30;14.44;;;5.29;;
61473;SDS011;53694;49.784;30.150;2022-12-07T18:24:31;23.92;;;8.98;;
61473;SDS011;53694;49.784;30.150;2022-12-07T18:25:33;17.21;;;7.95;;
61473;SDS011;53694;49.784;30.150;2022-12-07T18:26:35;17.08;;;8.08;;
61473;SDS011;53694;49.784;30.150;2022-12-07T18:27:36;15.69;;;7.79;;
61473;SDS011;53694;49.784;30.150;2022-12-07T18:28:38;10.19;;;4.56;;
61473;SDS011;53694;49.784;30.150;2022-12-07T18:29:41;5.80;;;3.05;;
61473;SDS011;53694;49.784;30.150;2022-12-07T18:30:42;26.88;;;11.11;;
61473;SDS011;53694;49.784;30.150;2022-12-07T18:31:44;31.85;;;12.53;;
61473;SDS011;53694;49.784;30.150;2022-12-07T18:32:47;47.61;;;18.47;;
61473;SDS011;53694;49.784;30.150;2022-12-07T18:33:48;30.89;;;12.14;;
61473;SDS011;53694;49.784;30.150;2022-12-07T18:34:50;45.55;;;17.31;;
61473;SDS011;53694;49.784;30.150;2022-12-07T18:35:52;24.14;;;11.31;;
61473;SDS011;53694;49.784;30.150;2022-12-07T18:36:53;66.41;;;31.30;;
61473;SDS011;53694;49.784;30.150;2022-12-07T18:37:55;31.31;;;13.81;;
61473;SDS011;53694;49.784;30.150;2022-12-07T18:38:56;39.13;;;17.58;;
61473;SDS011;53694;49.784;30.150;2022-12-07T18:39:58;12.41;;;6.85;;
61473;SDS011;53694;49.784;30.150;2022-12-07T18:41:00;9.25;;;5.38;;
61473;SDS011;53694;49.784;30.150;2022-12-07T18:42:03;7.49;;;3.97;;
61473;SDS011;53694;49.784;30.150;2022-12-07T18:43:05;9.70;;;6.00;;
61473;SDS011;53694;49.784;30.150;2022-12-07T18:44:07;8.05;;;4.41;;
61473;SDS011;53694;49.784;30.150;2022-12-07T18:45:10;9.91;;;5.67;;
61473;SDS011;53694;49.784;30.150;2022-12-07T18:46:13;15.67;;;9.05;;
61473;SDS011;53694;49.784;30.150;2022-12-07T18:47:17;15.97;;;8.84;;
61473;SDS011;53694;49.784;30.150;2022-12-07T18:48:19;13.37;;;7.35;;
61473;SDS011;53694;49.784;30.150;2022-12-07T18:49:22;10.85;;;7.04;;